createdAt,value
2023-03-25T00:00:10.708Z,10.68
2023-03-25T00:03:12.663Z,10.92
2023-03-25T00:06:14.454Z,10.87
2023-03-25T00:09:16.113Z,10.84
2023-03-25T00:12:19.907Z,10.91
2023-03-25T00:15:22.295Z,10.86
2023-03-25T00:18:26.061Z,10.71
2023-03-25T00:21:27.799Z,10.73
2023-03-25T00:24:29.885Z,10.63
2023-03-25T00:27:32.906Z,10.61
2023-03-25T00:30:34.898Z,10.51
2023-03-25T00:33:36.729Z,10.51
2023-03-25T00:36:38.452Z,10.45
2023-03-25T00:39:40.426Z,10.42
2023-03-25T00:42:44.690Z,10.34
2023-03-25T00:45:46.899Z,10.38
2023-03-25T00:48:54.465Z,10.35
2023-03-25T00:51:56.611Z,10.34
2023-03-25T00:54:59.948Z,10.33
2023-03-25T00:58:03.607Z,10.38
2023-03-25T01:01:10.892Z,10.40
2023-03-25T01:04:12.652Z,10.41
2023-03-25T01:07:16.763Z,10.38
2023-03-25T01:10:18.569Z,10.36
2023-03-25T01:13:23.456Z,10.42
2023-03-25T01:16:26.005Z,10.41
2023-03-25T01:19:27.803Z,10.33
2023-03-25T01:22:29.508Z,10.26
2023-03-25T01:25:31.442Z,10.19
2023-03-25T01:28:34.534Z,10.05
2023-03-25T01:31:39.270Z,9.91
2023-03-25T01:34:42.784Z,9.82
2023-03-25T01:37:46.732Z,9.56
2023-03-25T01:40:50.183Z,9.49
2023-03-25T01:44:04.829Z,9.56
2023-03-25T01:47:08.345Z,9.56
2023-03-25T01:50:14.914Z,9.45
2023-03-25T01:53:16.901Z,9.30
2023-03-25T01:56:22.558Z,9.18
2023-03-25T01:59:28.505Z,9.09
2023-03-25T02:02:34.822Z,9.02
2023-03-25T02:05:42.531Z,8.81
2023-03-25T02:08:44.295Z,8.42
2023-03-25T02:11:46.949Z,8.32
2023-03-25T02:14:50.795Z,8.18
2023-03-25T02:18:19.667Z,8.20
2023-03-25T02:22:02.202Z,8.14
2023-03-25T02:25:49.990Z,8.09
2023-03-25T02:28:53.440Z,7.92
2023-03-25T02:32:11.881Z,7.95
2023-03-25T02:35:34.351Z,7.90
2023-03-25T02:38:43.337Z,7.97
2023-03-25T02:41:52.917Z,8.00
2023-03-25T02:44:58.560Z,7.98
2023-03-25T02:48:05.498Z,7.96
2023-03-25T02:51:12.403Z,7.97
2023-03-25T02:54:17.108Z,7.94
2023-03-25T02:57:21.820Z,7.92
2023-03-25T03:00:26.874Z,7.82
2023-03-25T03:03:29.223Z,7.81
2023-03-25T03:06:41.190Z,7.75
2023-03-25T03:09:49.868Z,7.79
2023-03-25T03:13:02.389Z,7.71
2023-03-25T03:16:14.197Z,7.73
2023-03-25T03:19:31.532Z,7.73
2023-03-25T03:22:39.598Z,7.86
2023-03-25T03:25:50.091Z,7.94
2023-03-25T03:28:59.708Z,7.98
2023-03-25T03:32:09.029Z,8.07
2023-03-25T03:35:17.128Z,8.13
2023-03-25T03:38:22.812Z,8.14
2023-03-25T03:41:28.680Z,8.16
2023-03-25T03:44:34.304Z,8.17
2023-03-25T03:47:41.847Z,8.19
2023-03-25T03:50:50.592Z,8.19
2023-03-25T03:53:58.397Z,8.19
2023-03-25T03:57:05.323Z,8.19
2023-03-25T04:00:15.508Z,8.22
2023-03-25T04:03:24.300Z,8.28
2023-03-25T04:06:35.345Z,8.23
2023-03-25T04:09:43.620Z,8.23
2023-03-25T04:12:52.558Z,8.20
2023-03-25T04:15:54.441Z,8.23
2023-03-25T04:18:58.375Z,8.27
2023-03-25T04:22:01.718Z,8.24
2023-03-25T04:25:04.621Z,8.22
2023-03-25T04:28:08.800Z,8.21
2023-03-25T04:31:15.586Z,8.23
2023-03-25T04:34:17.439Z,8.24
2023-03-25T04:37:19.470Z,8.22
2023-03-25T04:40:21.345Z,8.20
2023-03-25T04:43:24.394Z,8.20
2023-03-25T04:46:26.668Z,8.16
2023-03-25T04:49:28.480Z,8.15
2023-03-25T04:52:30.660Z,8.19
2023-03-25T04:55:34.674Z,8.16
2023-03-25T04:58:37.785Z,8.22
2023-03-25T05:01:42.320Z,8.20
2023-03-25T05:04:47.920Z,8.25
2023-03-25T05:07:51.840Z,8.17
2023-03-25T05:10:53.688Z,8.22
2023-03-25T05:13:56.993Z,8.21
2023-03-25T05:17:00.273Z,8.27
2023-03-25T05:20:02.347Z,8.21
2023-03-25T05:23:04.540Z,8.17
2023-03-25T05:26:06.766Z,8.17
2023-03-25T05:29:14.072Z,8.10
2023-03-25T05:32:17.826Z,8.05
2023-03-25T05:35:20.962Z,8.11
2023-03-25T05:38:22.861Z,8.05
2023-03-25T05:41:32.367Z,8.05
2023-03-25T05:44:55.669Z,8.04
2023-03-25T05:47:59.299Z,8.06
2023-03-25T05:51:04.452Z,8.16
2023-03-25T05:54:10.956Z,8.30
2023-03-25T05:57:14.128Z,8.38
2023-03-25T06:00:19.747Z,8.61
2023-03-25T06:03:22.193Z,8.66
2023-03-25T06:06:25.794Z,8.66
2023-03-25T06:09:31.010Z,8.77
2023-03-25T06:12:33.173Z,8.89
2023-03-25T06:15:40.632Z,8.91
2023-03-25T06:18:42.590Z,8.96
2023-03-25T06:21:51.464Z,8.97
2023-03-25T06:24:53.417Z,9.04
2023-03-25T06:27:56.135Z,9.15
2023-03-25T06:30:59.379Z,9.18
2023-03-25T06:34:01.766Z,9.19
2023-03-25T06:37:03.712Z,9.21
2023-03-25T06:40:06.841Z,9.18
2023-03-25T06:43:09.418Z,9.13
2023-03-25T06:46:12.944Z,9.07
2023-03-25T06:49:35.467Z,9.00
2023-03-25T06:52:37.169Z,8.99
2023-03-25T06:55:39.522Z,9.10
2023-03-25T06:58:42.426Z,9.17
2023-03-25T07:01:45.950Z,9.21
2023-03-25T07:04:48.048Z,9.26
2023-03-25T07:07:50.865Z,9.29
2023-03-25T07:10:52.561Z,9.39
2023-03-25T07:13:55.957Z,9.57
2023-03-25T07:17:01.411Z,9.53
2023-03-25T07:20:04.343Z,9.76
2023-03-25T07:23:26.385Z,9.84
2023-03-25T07:26:28.191Z,9.95
2023-03-25T07:29:30.549Z,9.92
2023-03-25T07:32:33.753Z,9.89
2023-03-25T07:35:36.137Z,9.88
2023-03-25T07:38:37.922Z,9.87
2023-03-25T07:41:39.773Z,10.04
2023-03-25T07:44:54.113Z,10.19
2023-03-25T07:47:57.322Z,10.27
2023-03-25T07:50:59.120Z,10.46
2023-03-25T07:54:05.610Z,10.53
2023-03-25T07:57:08.105Z,10.49
2023-03-25T08:00:11.221Z,10.60
2023-03-25T08:03:17.821Z,10.86
2023-03-25T08:06:19.960Z,10.93
2023-03-25T08:09:21.615Z,10.94
2023-03-25T08:12:23.435Z,10.90
2023-03-25T08:15:25.302Z,10.71
2023-03-25T08:18:28.623Z,10.54
2023-03-25T08:21:30.449Z,10.53
2023-03-25T08:24:32.613Z,10.50
2023-03-25T08:27:34.624Z,10.56
2023-03-25T08:30:38.906Z,10.62
2023-03-25T08:33:42.872Z,10.67
2023-03-25T08:36:44.726Z,10.73
2023-03-25T08:39:50.035Z,10.73
2023-03-25T08:42:51.799Z,10.80
2023-03-25T08:45:53.826Z,10.88
2023-03-25T08:48:57.301Z,10.84
2023-03-25T08:52:01.000Z,10.59
2023-03-25T08:55:03.259Z,10.40
2023-03-25T08:58:08.036Z,10.39
2023-03-25T09:01:09.796Z,10.17
2023-03-25T09:04:13.603Z,10.10
2023-03-25T09:07:15.803Z,10.01
2023-03-25T09:10:19.109Z,10.04
2023-03-25T09:13:21.005Z,10.06
2023-03-25T09:16:24.093Z,9.92
2023-03-25T09:19:27.347Z,10.05
2023-03-25T09:22:29.068Z,10.06
2023-03-25T09:25:30.750Z,9.96
2023-03-25T09:28:33.043Z,10.13
2023-03-25T09:31:35.601Z,9.99
2023-03-25T09:34:39.450Z,10.26
2023-03-25T09:37:43.328Z,10.21
2023-03-25T09:40:46.145Z,10.47
2023-03-25T09:43:57.422Z,10.50
2023-03-25T09:47:01.854Z,10.64
2023-03-25T09:50:10.757Z,10.53
2023-03-25T09:53:23.424Z,10.51
2023-03-25T09:56:29.495Z,10.48
2023-03-25T09:59:40.562Z,10.55
2023-03-25T10:02:46.284Z,10.60
2023-03-25T10:06:03.692Z,10.63
2023-03-25T10:09:26.470Z,10.73
2023-03-25T10:12:41.863Z,10.60
2023-03-25T10:15:51.746Z,10.59
2023-03-25T10:19:04.790Z,10.96
2023-03-25T10:22:16.178Z,11.35
2023-03-25T10:25:22.667Z,11.48
2023-03-25T10:28:28.613Z,12.10
2023-03-25T10:31:36.175Z,12.62
2023-03-25T10:34:43.108Z,12.22
2023-03-25T10:37:49.611Z,12.16
2023-03-25T10:40:59.907Z,12.05
2023-03-25T10:44:09.223Z,12.18
2023-03-25T10:47:16.082Z,12.01
2023-03-25T10:50:40.254Z,12.01
2023-03-25T10:53:48.300Z,12.13
2023-03-25T10:56:53.020Z,11.89
2023-03-25T11:00:04.813Z,11.78
2023-03-25T11:03:15.404Z,11.69
2023-03-25T11:06:26.568Z,11.51
2023-03-25T11:09:31.044Z,10.26
2023-03-25T11:12:42.432Z,9.06
2023-03-25T11:15:45.015Z,9.27
2023-03-25T11:18:48.244Z,9.83
2023-03-25T11:21:58.901Z,10.18
2023-03-25T11:25:07.945Z,10.02
2023-03-25T11:28:16.166Z,10.40
2023-03-25T11:31:20.121Z,10.75
2023-03-25T11:34:23.994Z,10.84
2023-03-25T11:37:31.072Z,11.70
2023-03-25T11:40:49.046Z,11.59
2023-03-25T11:43:51.378Z,12.09
2023-03-25T11:46:56.491Z,12.63
2023-03-25T11:50:01.991Z,12.68
2023-03-25T11:53:06.116Z,12.01
2023-03-25T11:56:12.143Z,12.05
2023-03-25T11:59:24.811Z,11.96
2023-03-25T12:02:31.322Z,12.38
2023-03-25T12:05:37.030Z,12.79
2023-03-25T12:08:43.994Z,12.59
2023-03-25T12:11:56.899Z,12.80
2023-03-25T12:15:09.292Z,12.80
2023-03-25T12:18:34.948Z,13.22
2023-03-25T12:21:58.012Z,13.38
2023-03-25T12:25:12.162Z,13.93
2023-03-25T12:28:46.667Z,14.38
2023-03-25T12:32:04.074Z,14.00
2023-03-25T12:35:28.386Z,13.81
2023-03-25T12:38:41.210Z,13.28
2023-03-25T12:41:54.354Z,13.44
2023-03-25T12:45:12.766Z,13.66
2023-03-25T12:48:28.676Z,13.63
2023-03-25T12:51:44.128Z,13.24
2023-03-25T12:54:58.813Z,12.90
2023-03-25T12:58:20.989Z,12.67
2023-03-25T13:01:28.382Z,12.86
2023-03-25T13:04:52.043Z,12.57
2023-03-25T13:07:58.087Z,13.21
2023-03-25T13:11:06.516Z,12.83
2023-03-25T13:14:16.254Z,12.77
2023-03-25T13:17:27.030Z,12.75
2023-03-25T13:20:34.510Z,12.85
2023-03-25T13:23:38.290Z,13.03
2023-03-25T13:26:43.804Z,13.47
2023-03-25T13:29:49.517Z,13.66
2023-03-25T13:32:55.595Z,13.98
2023-03-25T13:36:05.844Z,15.12
2023-03-25T13:39:14.383Z,15.47
2023-03-25T13:42:21.029Z,14.79
2023-03-25T13:45:24.313Z,14.37
2023-03-25T13:48:33.395Z,14.08
2023-03-25T13:51:36.672Z,13.82
2023-03-25T13:54:45.304Z,13.42
2023-03-25T13:58:12.862Z,13.25
2023-03-25T14:01:53.346Z,13.16
2023-03-25T14:05:25.727Z,13.36
2023-03-25T14:09:05.718Z,14.68
2023-03-25T14:12:11.386Z,13.95
2023-03-25T14:15:20.550Z,13.91
2023-03-25T14:18:22.685Z,14.31
2023-03-25T14:21:34.358Z,14.49
2023-03-25T14:24:38.087Z,14.49
2023-03-25T14:27:40.721Z,14.22
2023-03-25T14:30:43.182Z,15.09
2023-03-25T14:34:22.277Z,15.89
2023-03-25T14:37:30.521Z,16.38
2023-03-25T14:41:02.282Z,17.02
2023-03-25T14:44:19.008Z,16.16
2023-03-25T14:47:34.063Z,15.11
2023-03-25T14:50:37.313Z,15.39
2023-03-25T14:53:40.913Z,15.16
2023-03-25T14:56:53.287Z,14.76
2023-03-25T15:00:01.247Z,14.47
2023-03-25T15:03:08.899Z,14.17
2023-03-25T15:06:17.101Z,13.91
2023-03-25T15:09:21.093Z,14.27
2023-03-25T15:12:26.664Z,14.29
2023-03-25T15:15:32.828Z,14.48
2023-03-25T15:19:03.132Z,15.36
2023-03-25T15:22:17.620Z,16.34
2023-03-25T15:25:20.881Z,16.28
2023-03-25T15:28:56.703Z,15.40
2023-03-25T15:32:12.162Z,14.92
2023-03-25T15:35:36.227Z,15.38
2023-03-25T15:38:49.684Z,14.94
2023-03-25T15:42:17.992Z,14.36
2023-03-25T15:45:32.379Z,14.05
2023-03-25T15:49:13.681Z,13.98
2023-03-25T15:52:29.965Z,14.13
2023-03-25T15:55:38.248Z,14.14
2023-03-25T15:58:48.584Z,13.99
2023-03-25T16:01:52.908Z,14.08
2023-03-25T16:04:55.786Z,13.94
2023-03-25T16:08:01.243Z,13.88
2023-03-25T16:11:23.303Z,13.90
2023-03-25T16:14:30.360Z,13.93
2023-03-25T16:17:34.773Z,13.95
2023-03-25T16:20:37.052Z,13.94
2023-03-25T16:23:39.557Z,13.89
2023-03-25T16:26:44.358Z,13.91
2023-03-25T16:29:50.546Z,13.87
2023-03-25T16:32:53.728Z,13.82
2023-03-25T16:35:59.170Z,13.77
2023-03-25T16:39:01.130Z,13.75
2023-03-25T16:42:06.951Z,13.67
2023-03-25T16:45:15.536Z,13.69
2023-03-25T16:48:27.150Z,13.65
2023-03-25T16:51:35.224Z,13.73
2023-03-25T16:54:43.801Z,13.73
2023-03-25T16:57:46.589Z,13.61
2023-03-25T17:00:51.891Z,13.53
2023-03-25T17:04:08.992Z,13.55
2023-03-25T17:07:14.774Z,13.56
2023-03-25T17:10:23.108Z,13.53
2023-03-25T17:13:27.732Z,13.52
2023-03-25T17:16:32.299Z,13.43
2023-03-25T17:19:39.048Z,13.37
2023-03-25T17:22:41.107Z,13.37
2023-03-25T17:25:52.603Z,13.29
2023-03-25T17:29:02.981Z,13.30
2023-03-25T17:32:17.784Z,13.23
2023-03-25T17:35:27.562Z,13.22
2023-03-25T17:38:34.043Z,13.17
2023-03-25T17:41:37.809Z,13.22
2023-03-25T17:44:43.246Z,13.25
2023-03-25T17:47:46.971Z,13.20
2023-03-25T17:50:54.871Z,13.09
2023-03-25T17:53:57.438Z,12.94
2023-03-25T17:56:59.451Z,12.59
2023-03-25T18:00:01.497Z,11.95
2023-03-25T18:03:10.594Z,11.09
2023-03-25T18:06:13.882Z,10.89
2023-03-25T18:09:17.115Z,10.48
2023-03-25T18:12:19.001Z,9.63
2023-03-25T18:15:21.189Z,9.34
2023-03-25T18:18:25.274Z,9.22
2023-03-25T18:21:28.713Z,9.06
2023-03-25T18:24:34.169Z,8.93
2023-03-25T18:27:43.278Z,8.79
2023-03-25T18:30:49.232Z,8.68
2023-03-25T18:33:51.633Z,8.65
2023-03-25T18:36:55.279Z,8.53
2023-03-25T18:39:57.442Z,8.42
2023-03-25T18:42:59.328Z,8.39
2023-03-25T18:46:01.513Z,8.45
2023-03-25T18:49:06.868Z,8.40
2023-03-25T18:52:10.293Z,8.48
2023-03-25T18:55:13.291Z,8.51
2023-03-25T18:58:17.689Z,8.52
2023-03-25T19:01:21.679Z,8.63
2023-03-25T19:04:23.564Z,8.60
2023-03-25T19:07:46.900Z,8.56
2023-03-25T19:10:49.357Z,8.67
2023-03-25T19:14:11.263Z,8.78
2023-03-25T19:17:13.290Z,8.76
2023-03-25T19:20:18.152Z,8.82
2023-03-25T19:23:21.441Z,8.79
2023-03-25T19:26:23.277Z,8.77
2023-03-25T19:29:25.066Z,8.88
2023-03-25T19:32:29.665Z,8.91
2023-03-25T19:35:32.928Z,9.03
2023-03-25T19:38:36.100Z,9.12
2023-03-25T19:41:42.853Z,9.17
2023-03-25T19:44:46.746Z,9.27
2023-03-25T19:47:52.800Z,9.24
2023-03-25T19:50:57.245Z,9.27
2023-03-25T19:54:00.852Z,9.33
2023-03-25T19:57:02.942Z,9.39
2023-03-25T20:00:14.404Z,9.40
2023-03-25T20:03:16.325Z,9.62
2023-03-25T20:06:18.284Z,9.61
2023-03-25T20:09:21.614Z,9.63
2023-03-25T20:12:23.863Z,9.65
2023-03-25T20:15:27.191Z,9.61
2023-03-25T20:18:28.988Z,9.66
2023-03-25T20:21:31.027Z,9.79
2023-03-25T20:24:34.595Z,9.78
2023-03-25T20:27:36.988Z,9.76
2023-03-25T20:30:38.992Z,9.67
2023-03-25T20:33:40.895Z,9.74
2023-03-25T20:36:42.739Z,9.71
2023-03-25T20:39:46.095Z,9.68
2023-03-25T20:42:49.937Z,9.59
2023-03-25T20:45:54.574Z,9.49
2023-03-25T20:48:57.192Z,9.42
2023-03-25T20:51:59.455Z,9.39
2023-03-25T20:55:03.190Z,9.43
2023-03-25T20:58:05.936Z,9.56
2023-03-25T21:01:07.917Z,9.55
2023-03-25T21:04:11.600Z,9.56
2023-03-25T21:07:13.749Z,9.54
2023-03-25T21:10:20.112Z,9.59
2023-03-25T21:13:22.106Z,9.60
2023-03-25T21:16:24.003Z,9.61
2023-03-25T21:19:26.067Z,9.58
2023-03-25T21:22:28.548Z,9.52
2023-03-25T21:25:35.156Z,9.49
2023-03-25T21:28:38.234Z,9.50
2023-03-25T21:31:41.129Z,9.49
2023-03-25T21:34:42.829Z,9.50
2023-03-25T21:37:47.189Z,9.49
2023-03-25T21:40:55.969Z,9.42
2023-03-25T21:43:58.032Z,9.40
2023-03-25T21:47:01.361Z,9.45
2023-03-25T21:50:06.105Z,9.51
2023-03-25T21:53:13.119Z,9.54
2023-03-25T21:56:18.123Z,9.54
2023-03-25T21:59:20.646Z,9.57
2023-03-25T22:02:25.472Z,9.62
2023-03-25T22:05:32.134Z,9.60
2023-03-25T22:08:34.938Z,9.58
2023-03-25T22:11:38.262Z,9.56
2023-03-25T22:14:40.468Z,9.54
2023-03-25T22:17:44.656Z,9.55
2023-03-25T22:20:47.297Z,9.53
2023-03-25T22:23:52.117Z,9.61
2023-03-25T22:26:55.462Z,9.56
2023-03-25T22:29:57.145Z,9.62
2023-03-25T22:32:59.051Z,9.66
2023-03-25T22:36:06.759Z,9.69
2023-03-25T22:39:17.836Z,9.68
2023-03-25T22:42:21.937Z,9.66
2023-03-25T22:45:23.774Z,9.54
2023-03-25T22:48:26.158Z,9.45
2023-03-25T22:51:28.406Z,9.40
2023-03-25T22:54:32.137Z,9.35
2023-03-25T22:57:41.558Z,9.24
2023-03-25T23:04:05.083Z,9.15
2023-03-25T23:07:08.636Z,9.08
2023-03-25T23:10:13.644Z,9.06
2023-03-25T23:13:17.000Z,9.05
2023-03-25T23:16:21.411Z,9.07
2023-03-25T23:19:23.669Z,9.04
2023-03-25T23:22:25.816Z,9.05
2023-03-25T23:25:27.833Z,9.02
2023-03-25T23:28:34.280Z,9.01
2023-03-25T23:31:37.590Z,9.01
2023-03-25T23:34:40.068Z,8.96
2023-03-25T23:37:43.605Z,8.97
2023-03-25T23:40:45.809Z,8.94
2023-03-25T23:43:49.189Z,8.94
2023-03-25T23:47:01.942Z,8.88
2023-03-25T23:50:04.270Z,8.89
2023-03-25T23:53:06.375Z,8.88
2023-03-25T23:56:08.483Z,8.89
2023-03-25T23:59:13.352Z,8.91
